createdAt,value
2022-09-23T00:02:20.215Z,4.68
2022-09-23T00:07:20.067Z,4.62
2022-09-23T00:12:20.057Z,4.5
2022-09-23T00:17:20.058Z,4.5
2022-09-23T00:22:20.065Z,4.56
2022-09-23T00:27:20.051Z,4.25
2022-09-23T00:32:20.050Z,4.31
2022-09-23T00:37:20.058Z,4.06
2022-09-23T00:42:20.044Z,4.18
2022-09-23T00:47:20.054Z,4.12
2022-09-23T00:52:20.067Z,4.18
2022-09-23T00:57:20.042Z,4.18
2022-09-23T01:02:20.079Z,3.87
2022-09-23T01:07:20.107Z,3.87
2022-09-23T01:12:20.032Z,3.81
2022-09-23T01:17:20.027Z,3.81
2022-09-23T01:22:20.028Z,4
2022-09-23T01:32:20.026Z,3.68
2022-09-23T01:42:20.013Z,3.93
2022-09-23T01:47:19.986Z,3.68
2022-09-23T01:52:20.004Z,3.81
2022-09-23T01:57:20.002Z,3.68
2022-09-23T02:02:20.030Z,3.43
2022-09-23T02:12:19.980Z,3.31
2022-09-23T02:22:19.978Z,3.31
2022-09-23T02:32:19.964Z,3.43
2022-09-23T02:37:19.964Z,3.5
2022-09-23T02:42:19.990Z,3.43
2022-09-23T02:47:19.958Z,3.12
2022-09-23T02:52:19.967Z,3
2022-09-23T02:57:19.959Z,2.87
2022-09-23T03:02:20.036Z,3.06
2022-09-23T03:07:19.963Z,3.06
2022-09-23T03:12:19.955Z,3.25
2022-09-23T03:17:19.944Z,3.37
2022-09-23T03:22:19.965Z,3.25
2022-09-23T03:27:19.951Z,3.68
2022-09-23T03:32:19.939Z,3.06
2022-09-23T03:37:19.957Z,3
2022-09-23T03:42:19.927Z,3.12
2022-09-23T03:47:19.934Z,2.75
2022-09-23T03:52:19.935Z,3.12
2022-09-23T03:57:19.941Z,3.18
2022-09-23T04:02:20.111Z,2.93
2022-09-23T04:07:19.926Z,2.93
2022-09-23T04:12:19.938Z,3.31
2022-09-23T04:17:19.923Z,2.93
2022-09-23T04:22:19.921Z,2.87
2022-09-23T04:27:19.930Z,2.81
2022-09-23T04:32:19.908Z,3.06
2022-09-23T04:37:19.923Z,2.75
2022-09-23T04:42:19.918Z,3.06
2022-09-23T04:47:19.917Z,2.75
2022-09-23T04:52:19.906Z,2.81
2022-09-23T04:57:19.901Z,2.75
2022-09-23T05:02:20.006Z,3.25
2022-09-23T05:07:19.908Z,3.06
2022-09-23T05:12:19.891Z,2.87
2022-09-23T05:17:19.887Z,3.12
2022-09-23T05:22:19.892Z,3.12
2022-09-23T05:27:19.886Z,4.25
2022-09-23T05:32:19.879Z,5.93
2022-09-23T05:37:19.889Z,6.62
2022-09-23T05:42:19.881Z,7.37
2022-09-23T05:47:19.885Z,7.68
2022-09-23T05:52:19.859Z,7.87
2022-09-23T05:57:19.866Z,8.18
2022-09-23T06:02:19.906Z,8.62
2022-09-23T06:07:19.858Z,9.81
2022-09-23T06:12:19.854Z,10.56
2022-09-23T06:17:19.861Z,10.25
2022-09-23T06:22:19.860Z,10.25
2022-09-23T06:27:19.940Z,10.43
2022-09-23T06:32:19.835Z,11.06
2022-09-23T06:37:20.756Z,10.75
2022-09-23T06:42:19.845Z,11.68
2022-09-23T06:47:19.822Z,11.93
2022-09-23T06:52:19.830Z,12.43
2022-09-23T06:57:19.828Z,12.93
2022-09-23T07:02:19.912Z,9
2022-09-23T07:07:19.815Z,7.87
2022-09-23T07:12:19.818Z,8
2022-09-23T07:17:19.810Z,8.18
2022-09-23T07:22:19.796Z,8
2022-09-23T07:27:19.803Z,8.75
2022-09-23T07:32:19.848Z,8.81
2022-09-23T07:37:19.798Z,8.68
2022-09-23T07:42:19.785Z,8.56
2022-09-23T07:47:19.769Z,8.81
2022-09-23T07:52:19.768Z,8.93
2022-09-23T07:57:19.761Z,9.25
2022-09-23T08:02:19.798Z,9.62
2022-09-23T08:07:19.763Z,9.93
2022-09-23T08:12:19.755Z,9.68
2022-09-23T08:17:19.761Z,9.68
2022-09-23T08:27:19.733Z,10.31
2022-09-23T08:32:19.736Z,10.25
2022-09-23T08:37:19.718Z,10.87
2022-09-23T08:42:19.719Z,10.81
2022-09-23T09:17:19.677Z,12.56
2022-09-23T09:22:19.679Z,12.5
2022-09-23T09:27:19.668Z,12.31
2022-09-23T09:32:19.660Z,13.25
2022-09-23T09:37:19.657Z,13.18
2022-09-23T09:42:19.661Z,13.37
2022-09-23T09:47:19.649Z,13.31
2022-09-23T09:52:19.656Z,13.5
2022-09-23T09:57:19.630Z,13.18
2022-09-23T10:02:19.574Z,13.43
2022-09-23T10:07:19.561Z,14.12
2022-09-23T10:12:19.554Z,14.31
2022-09-23T10:17:19.560Z,14
2022-09-23T10:22:19.541Z,14.56
2022-09-23T10:27:19.546Z,14.25
2022-09-23T10:32:19.528Z,14.62
2022-09-23T10:37:19.524Z,14.68
2022-09-23T10:47:19.516Z,14.81
2022-09-23T10:52:19.528Z,14.81
2022-09-23T10:57:19.545Z,14.93
2022-09-23T11:02:19.525Z,15.37
2022-09-23T11:07:19.506Z,15.06
2022-09-23T11:17:19.557Z,15.56
2022-09-23T11:22:19.504Z,15.81
2022-09-23T11:27:19.486Z,15.56
2022-09-23T11:32:19.495Z,15.68
2022-09-23T11:37:19.500Z,15.68
2022-09-23T11:42:19.489Z,15.75
2022-09-23T11:47:19.473Z,15.81
2022-09-23T11:52:19.480Z,15.68
2022-09-23T11:57:19.474Z,16
2022-09-23T12:02:21.355Z,16.06
2022-09-23T12:07:19.464Z,16.37
2022-09-23T12:12:21.052Z,16.75
2022-09-23T12:17:19.439Z,17.31
2022-09-23T12:22:19.447Z,16.81
2022-09-23T12:27:19.417Z,16.75
2022-09-23T12:32:19.432Z,17.12
2022-09-23T12:37:19.415Z,17.37
2022-09-23T12:42:19.412Z,16.93
2022-09-23T12:47:19.419Z,17.06
2022-09-23T12:52:19.403Z,17
2022-09-23T12:57:19.396Z,17.25
2022-09-23T13:02:19.531Z,17.18
2022-09-23T13:07:19.398Z,17.5
2022-09-23T13:12:19.370Z,17.37
2022-09-23T13:17:19.379Z,17.18
2022-09-23T13:22:19.374Z,17.31
2022-09-23T13:27:19.361Z,17.43
2022-09-23T13:32:19.353Z,17.43
2022-09-23T13:37:22.360Z,17.25
2022-09-23T13:42:19.342Z,17.31
2022-09-23T13:47:19.363Z,17.25
2022-09-23T13:52:19.346Z,17.18
2022-09-23T13:57:19.318Z,17.12
2022-09-23T14:02:19.331Z,17
2022-09-23T14:07:19.310Z,17
2022-09-23T14:12:19.307Z,17.06
2022-09-23T14:17:19.313Z,17
2022-09-23T14:22:19.304Z,16.93
2022-09-23T14:27:19.285Z,16.81
2022-09-23T14:32:19.287Z,16.81
2022-09-23T14:37:19.279Z,16.75
2022-09-23T14:42:19.274Z,16.56
2022-09-23T14:47:19.278Z,16.5
2022-09-23T14:52:19.264Z,16.62
2022-09-23T14:57:19.257Z,16.56
2022-09-23T15:02:19.249Z,16.43
2022-09-23T15:07:19.235Z,16.37
2022-09-23T15:12:19.239Z,16.43
2022-09-23T15:17:19.237Z,16.62
2022-09-23T15:22:19.227Z,16.43
2022-09-23T15:27:19.218Z,16.62
2022-09-23T15:32:19.219Z,16.18
2022-09-23T15:37:19.202Z,16.25
2022-09-23T15:42:19.211Z,16
2022-09-23T15:52:19.197Z,15.81
2022-09-23T15:57:19.184Z,15.5
2022-09-23T16:02:19.247Z,15.25
2022-09-23T16:07:19.182Z,15.18
2022-09-23T16:12:19.169Z,15.18
2022-09-23T16:22:19.162Z,14.75
2022-09-23T16:27:19.159Z,14.56
2022-09-23T16:32:22.182Z,14.37
2022-09-23T16:42:19.135Z,12.81
2022-09-23T17:12:19.095Z,11.31
2022-09-23T17:17:19.097Z,11
2022-09-23T17:22:19.095Z,11.06
2022-09-23T17:27:19.165Z,10.68
2022-09-23T17:32:19.094Z,10.5
2022-09-23T17:37:19.085Z,10.18
2022-09-23T17:42:19.061Z,10.18
2022-09-23T17:47:19.096Z,10
2022-09-23T17:52:19.054Z,10.12
2022-09-23T17:57:19.048Z,9.68
2022-09-23T18:02:19.093Z,9.68
2022-09-23T18:07:19.037Z,9.68
2022-09-23T18:12:19.046Z,9.56
2022-09-23T18:17:19.030Z,9.37
2022-09-23T18:22:19.039Z,9.31
2022-09-23T18:27:19.029Z,9.25
2022-09-23T18:32:19.008Z,9.12
2022-09-23T18:37:19.029Z,9.06
2022-09-23T18:42:18.996Z,8.93
2022-09-23T18:47:18.997Z,8.87
2022-09-23T18:52:19.005Z,9.06
2022-09-23T18:57:18.985Z,8.81
2022-09-23T19:02:19.013Z,8.75
2022-09-23T19:07:18.997Z,8.68
2022-09-23T19:12:18.983Z,8.62
2022-09-23T19:17:18.978Z,8.37
2022-09-23T19:22:19.004Z,8.43
2022-09-23T19:27:18.980Z,8.37
2022-09-23T19:32:18.955Z,8.5
2022-09-23T19:37:18.981Z,8.12
2022-09-23T19:42:18.946Z,8.12
2022-09-23T19:47:18.937Z,7.87
2022-09-23T19:52:18.973Z,8.06
2022-09-23T19:57:18.943Z,8
2022-09-23T20:02:18.939Z,8
2022-09-23T20:07:18.947Z,7.93
2022-09-23T20:12:18.929Z,7.93
2022-09-23T20:17:18.923Z,8.06
2022-09-23T20:22:18.906Z,8
2022-09-23T20:27:18.951Z,7.93
2022-09-23T20:32:18.956Z,8.25
2022-09-23T20:37:18.917Z,7.81
2022-09-23T20:42:18.905Z,7.87
2022-09-23T20:47:18.982Z,8
2022-09-23T20:52:18.890Z,7.68
2022-09-23T20:57:18.885Z,7.62
2022-09-23T21:02:18.931Z,7.93
2022-09-23T21:07:18.865Z,7.5
2022-09-23T21:12:18.873Z,7.68
2022-09-23T21:17:18.863Z,7.43
2022-09-23T21:22:18.917Z,7.37
2022-09-23T21:27:18.841Z,7.18
2022-09-23T21:32:18.856Z,7.31
2022-09-23T21:37:18.851Z,7.62
2022-09-23T21:42:18.846Z,7.56
2022-09-23T21:47:18.842Z,7.68
2022-09-23T21:52:18.843Z,7.75
2022-09-23T21:57:18.832Z,7.81
2022-09-23T22:12:18.851Z,8.06
2022-09-23T22:17:18.818Z,8.25
2022-09-23T22:22:18.808Z,7.93
2022-09-23T22:27:18.804Z,8.31
2022-09-23T22:32:18.801Z,8.37
2022-09-23T22:37:18.795Z,8
2022-09-23T22:42:18.811Z,8.25
2022-09-23T22:47:18.825Z,7.93
2022-09-23T22:52:18.774Z,8.18
2022-09-23T22:57:18.771Z,8
2022-09-23T23:07:18.781Z,7.93
2022-09-23T23:12:18.771Z,8.62
2022-09-23T23:17:18.780Z,8.25
2022-09-23T23:22:18.758Z,8.12
2022-09-23T23:27:18.744Z,8.87
2022-09-23T23:32:18.763Z,8.37
2022-09-23T23:37:20.863Z,8.18
2022-09-23T23:42:18.750Z,8.43
2022-09-23T23:47:18.727Z,8.75
